sensor_id;sensor_type;location;lat;lon;timestamp;P1;durP1;ratioP1;P2;durP2;ratioP2
41305;SDS011;27051;50.376;19.152;2023-04-03T00:00:32;9.50;;;3.80;;
41305;SDS011;27051;50.376;19.152;2023-04-03T00:03:14;7.10;;;3.60;;
41305;SDS011;27051;50.376;19.152;2023-04-03T00:05:41;7.10;;;3.60;;
41305;SDS011;27051;50.376;19.152;2023-04-03T00:08:08;6.50;;;3.20;;
41305;SDS011;27051;50.376;19.152;2023-04-03T00:10:35;6.50;;;3.60;;
41305;SDS011;27051;50.376;19.152;2023-04-03T00:13:03;9.50;;;4.10;;
41305;SDS011;27051;50.376;19.152;2023-04-03T00:15:31;6.70;;;3.40;;
41305;SDS011;27051;50.376;19.152;2023-04-03T00:17:58;7.80;;;3.80;;
41305;SDS011;27051;50.376;19.152;2023-04-03T00:20:24;7.40;;;4.10;;
41305;SDS011;27051;50.376;19.152;2023-04-03T00:22:51;5.60;;;3.90;;
41305;SDS011;27051;50.376;19.152;2023-04-03T00:25:17;6.00;;;3.40;;
41305;SDS011;27051;50.376;19.152;2023-04-03T00:27:43;8.00;;;3.90;;
41305;SDS011;27051;50.376;19.152;2023-04-03T00:30:11;9.00;;;4.00;;
41305;SDS011;27051;50.376;19.152;2023-04-03T00:32:40;11.10;;;3.80;;
41305;SDS011;27051;50.376;19.152;2023-04-03T00:35:07;9.70;;;3.60;;
41305;SDS011;27051;50.376;19.152;2023-04-03T00:37:34;7.30;;;3.80;;
41305;SDS011;27051;50.376;19.152;2023-04-03T00:40:01;9.10;;;3.50;;
41305;SDS011;27051;50.376;19.152;2023-04-03T00:42:28;7.50;;;3.90;;
41305;SDS011;27051;50.376;19.152;2023-04-03T00:47:21;8.60;;;4.80;;
41305;SDS011;27051;50.376;19.152;2023-04-03T00:49:50;10.20;;;5.00;;
41305;SDS011;27051;50.376;19.152;2023-04-03T00:52:19;10.20;;;6.10;;
41305;SDS011;27051;50.376;19.152;2023-04-03T00:54:50;15.60;;;7.20;;
41305;SDS011;27051;50.376;19.152;2023-04-03T00:57:20;15.80;;;6.40;;
41305;SDS011;27051;50.376;19.152;2023-04-03T00:59:49;12.20;;;7.40;;
41305;SDS011;27051;50.376;19.152;2023-04-03T01:02:18;14.90;;;7.10;;
41305;SDS011;27051;50.376;19.152;2023-04-03T01:04:44;14.60;;;7.30;;
41305;SDS011;27051;50.376;19.152;2023-04-03T01:07:12;14.90;;;8.20;;
41305;SDS011;27051;50.376;19.152;2023-04-03T01:09:41;14.80;;;7.50;;
41305;SDS011;27051;50.376;19.152;2023-04-03T01:12:13;17.10;;;8.30;;
41305;SDS011;27051;50.376;19.152;2023-04-03T01:14:39;13.60;;;8.00;;
41305;SDS011;27051;50.376;19.152;2023-04-03T01:17:23;16.40;;;7.90;;
41305;SDS011;27051;50.376;19.152;2023-04-03T01:19:52;15.20;;;8.10;;
41305;SDS011;27051;50.376;19.152;2023-04-03T01:25:33;15.30;;;7.80;;
41305;SDS011;27051;50.376;19.152;2023-04-03T01:28:02;17.30;;;8.50;;
41305;SDS011;27051;50.376;19.152;2023-04-03T01:30:31;18.30;;;9.40;;
41305;SDS011;27051;50.376;19.152;2023-04-03T01:33:00;16.90;;;8.50;;
41305;SDS011;27051;50.376;19.152;2023-04-03T01:35:27;17.70;;;8.80;;
41305;SDS011;27051;50.376;19.152;2023-04-03T01:37:53;17.60;;;8.70;;
41305;SDS011;27051;50.376;19.152;2023-04-03T01:40:20;17.20;;;8.70;;
41305;SDS011;27051;50.376;19.152;2023-04-03T01:42:46;15.80;;;7.80;;
41305;SDS011;27051;50.376;19.152;2023-04-03T01:45:13;12.60;;;7.20;;
41305;SDS011;27051;50.376;19.152;2023-04-03T01:47:39;17.20;;;8.00;;
41305;SDS011;27051;50.376;19.152;2023-04-03T01:50:05;15.40;;;7.50;;
41305;SDS011;27051;50.376;19.152;2023-04-03T01:52:32;16.20;;;7.70;;
41305;SDS011;27051;50.376;19.152;2023-04-03T01:54:58;17.70;;;8.20;;
41305;SDS011;27051;50.376;19.152;2023-04-03T01:57:25;33.80;;;16.00;;
41305;SDS011;27051;50.376;19.152;2023-04-03T01:59:51;12.80;;;7.30;;
41305;SDS011;27051;50.376;19.152;2023-04-03T02:02:18;14.60;;;7.00;;
41305;SDS011;27051;50.376;19.152;2023-04-03T02:04:44;11.30;;;6.20;;
41305;SDS011;27051;50.376;19.152;2023-04-03T02:07:10;11.50;;;6.30;;
41305;SDS011;27051;50.376;19.152;2023-04-03T02:09:37;14.80;;;5.50;;
41305;SDS011;27051;50.376;19.152;2023-04-03T02:12:03;11.90;;;5.50;;
41305;SDS011;27051;50.376;19.152;2023-04-03T02:14:30;11.50;;;5.10;;
41305;SDS011;27051;50.376;19.152;2023-04-03T02:16:56;11.90;;;4.90;;
41305;SDS011;27051;50.376;19.152;2023-04-03T02:19:23;11.40;;;5.00;;
41305;SDS011;27051;50.376;19.152;2023-04-03T02:21:49;9.90;;;4.90;;
41305;SDS011;27051;50.376;19.152;2023-04-03T02:24:16;10.80;;;4.60;;
41305;SDS011;27051;50.376;19.152;2023-04-03T02:26:42;12.30;;;5.60;;
41305;SDS011;27051;50.376;19.152;2023-04-03T02:29:09;12.10;;;6.00;;
41305;SDS011;27051;50.376;19.152;2023-04-03T02:31:35;9.90;;;5.20;;
41305;SDS011;27051;50.376;19.152;2023-04-03T02:34:01;12.20;;;5.30;;
41305;SDS011;27051;50.376;19.152;2023-04-03T02:36:28;10.70;;;5.70;;
41305;SDS011;27051;50.376;19.152;2023-04-03T02:38:54;12.60;;;6.00;;
41305;SDS011;27051;50.376;19.152;2023-04-03T02:41:21;10.90;;;6.40;;
41305;SDS011;27051;50.376;19.152;2023-04-03T02:43:47;12.00;;;6.30;;
41305;SDS011;27051;50.376;19.152;2023-04-03T02:46:14;18.10;;;6.70;;
41305;SDS011;27051;50.376;19.152;2023-04-03T02:48:40;16.40;;;6.90;;
41305;SDS011;27051;50.376;19.152;2023-04-03T02:51:07;18.10;;;6.90;;
41305;SDS011;27051;50.376;19.152;2023-04-03T02:53:33;16.20;;;6.60;;
41305;SDS011;27051;50.376;19.152;2023-04-03T02:56:00;16.00;;;7.10;;
41305;SDS011;27051;50.376;19.152;2023-04-03T02:58:26;15.00;;;6.80;;
41305;SDS011;27051;50.376;19.152;2023-04-03T03:00:53;15.50;;;7.50;;
41305;SDS011;27051;50.376;19.152;2023-04-03T03:03:19;14.00;;;6.50;;
41305;SDS011;27051;50.376;19.152;2023-04-03T03:05:46;13.60;;;7.20;;
41305;SDS011;27051;50.376;19.152;2023-04-03T03:08:12;12.10;;;5.80;;
41305;SDS011;27051;50.376;19.152;2023-04-03T03:10:39;13.50;;;6.30;;
41305;SDS011;27051;50.376;19.152;2023-04-03T03:13:05;13.90;;;6.50;;
41305;SDS011;27051;50.376;19.152;2023-04-03T03:15:31;15.30;;;6.60;;
41305;SDS011;27051;50.376;19.152;2023-04-03T03:17:58;16.10;;;6.60;;
41305;SDS011;27051;50.376;19.152;2023-04-03T03:20:24;16.30;;;6.60;;
41305;SDS011;27051;50.376;19.152;2023-04-03T03:22:50;15.40;;;6.10;;
41305;SDS011;27051;50.376;19.152;2023-04-03T03:25:17;17.60;;;6.10;;
41305;SDS011;27051;50.376;19.152;2023-04-03T03:27:43;14.70;;;5.70;;
41305;SDS011;27051;50.376;19.152;2023-04-03T03:30:10;10.20;;;5.00;;
41305;SDS011;27051;50.376;19.152;2023-04-03T03:32:36;14.00;;;5.90;;
41305;SDS011;27051;50.376;19.152;2023-04-03T03:35:03;14.40;;;5.80;;
41305;SDS011;27051;50.376;19.152;2023-04-03T03:37:30;13.10;;;5.00;;
41305;SDS011;27051;50.376;19.152;2023-04-03T03:39:56;12.10;;;4.50;;
41305;SDS011;27051;50.376;19.152;2023-04-03T03:42:22;15.50;;;5.90;;
41305;SDS011;27051;50.376;19.152;2023-04-03T03:44:49;11.80;;;5.20;;
41305;SDS011;27051;50.376;19.152;2023-04-03T03:47:15;13.60;;;4.80;;
41305;SDS011;27051;50.376;19.152;2023-04-03T03:49:42;12.80;;;4.80;;
41305;SDS011;27051;50.376;19.152;2023-04-03T03:52:08;11.30;;;5.00;;
41305;SDS011;27051;50.376;19.152;2023-04-03T03:54:34;13.00;;;4.10;;
41305;SDS011;27051;50.376;19.152;2023-04-03T03:57:01;12.80;;;4.70;;
41305;SDS011;27051;50.376;19.152;2023-04-03T03:59:27;11.20;;;3.90;;
41305;SDS011;27051;50.376;19.152;2023-04-03T04:01:54;12.30;;;4.30;;
41305;SDS011;27051;50.376;19.152;2023-04-03T04:04:20;8.70;;;4.30;;
41305;SDS011;27051;50.376;19.152;2023-04-03T04:06:46;12.80;;;4.80;;
41305;SDS011;27051;50.376;19.152;2023-04-03T04:09:13;10.20;;;4.10;;
41305;SDS011;27051;50.376;19.152;2023-04-03T04:11:39;10.70;;;4.10;;
41305;SDS011;27051;50.376;19.152;2023-04-03T04:14:06;12.80;;;4.60;;
41305;SDS011;27051;50.376;19.152;2023-04-03T04:16:33;13.30;;;4.60;;
41305;SDS011;27051;50.376;19.152;2023-04-03T04:18:59;14.20;;;4.80;;
41305;SDS011;27051;50.376;19.152;2023-04-03T04:21:26;10.10;;;4.70;;
41305;SDS011;27051;50.376;19.152;2023-04-03T04:23:52;18.60;;;8.10;;
41305;SDS011;27051;50.376;19.152;2023-04-03T04:26:18;11.60;;;4.50;;
41305;SDS011;27051;50.376;19.152;2023-04-03T04:28:45;12.40;;;4.60;;
41305;SDS011;27051;50.376;19.152;2023-04-03T04:31:11;12.40;;;4.30;;
41305;SDS011;27051;50.376;19.152;2023-04-03T04:33:38;9.60;;;4.40;;
41305;SDS011;27051;50.376;19.152;2023-04-03T04:36:04;13.30;;;4.50;;
41305;SDS011;27051;50.376;19.152;2023-04-03T04:38:32;10.40;;;4.30;;
41305;SDS011;27051;50.376;19.152;2023-04-03T04:40:58;8.90;;;4.10;;
41305;SDS011;27051;50.376;19.152;2023-04-03T04:43:24;9.50;;;4.40;;
41305;SDS011;27051;50.376;19.152;2023-04-03T04:46:05;10.30;;;4.40;;
41305;SDS011;27051;50.376;19.152;2023-04-03T04:48:34;8.70;;;3.90;;
41305;SDS011;27051;50.376;19.152;2023-04-03T04:51:01;9.80;;;4.40;;
41305;SDS011;27051;50.376;19.152;2023-04-03T04:53:28;11.10;;;4.50;;
41305;SDS011;27051;50.376;19.152;2023-04-03T04:55:55;10.50;;;4.50;;
41305;SDS011;27051;50.376;19.152;2023-04-03T04:58:21;13.60;;;5.60;;
41305;SDS011;27051;50.376;19.152;2023-04-03T05:00:48;10.50;;;4.80;;
41305;SDS011;27051;50.376;19.152;2023-04-03T05:03:14;16.90;;;6.60;;
41305;SDS011;27051;50.376;19.152;2023-04-03T05:05:41;9.50;;;4.20;;
41305;SDS011;27051;50.376;19.152;2023-04-03T05:08:08;10.00;;;4.60;;
41305;SDS011;27051;50.376;19.152;2023-04-03T05:10:35;12.70;;;5.20;;
41305;SDS011;27051;50.376;19.152;2023-04-03T05:13:01;10.60;;;4.20;;
41305;SDS011;27051;50.376;19.152;2023-04-03T05:15:28;13.50;;;4.80;;
41305;SDS011;27051;50.376;19.152;2023-04-03T05:17:58;11.30;;;4.90;;
41305;SDS011;27051;50.376;19.152;2023-04-03T05:20:25;12.40;;;4.60;;
41305;SDS011;27051;50.376;19.152;2023-04-03T05:22:52;12.30;;;5.00;;
41305;SDS011;27051;50.376;19.152;2023-04-03T05:25:18;14.10;;;5.20;;
41305;SDS011;27051;50.376;19.152;2023-04-03T05:27:45;9.50;;;4.50;;
41305;SDS011;27051;50.376;19.152;2023-04-03T05:30:11;11.20;;;4.50;;
41305;SDS011;27051;50.376;19.152;2023-04-03T05:32:39;10.80;;;4.40;;
41305;SDS011;27051;50.376;19.152;2023-04-03T05:35:06;15.00;;;4.60;;
41305;SDS011;27051;50.376;19.152;2023-04-03T05:37:33;14.60;;;5.70;;
41305;SDS011;27051;50.376;19.152;2023-04-03T05:40:00;15.40;;;5.20;;
41305;SDS011;27051;50.376;19.152;2023-04-03T05:42:26;20.50;;;7.10;;
41305;SDS011;27051;50.376;19.152;2023-04-03T05:44:55;24.40;;;8.50;;
41305;SDS011;27051;50.376;19.152;2023-04-03T05:47:23;28.00;;;10.00;;
41305;SDS011;27051;50.376;19.152;2023-04-03T05:49:49;19.90;;;7.70;;
41305;SDS011;27051;50.376;19.152;2023-04-03T05:54:56;19.10;;;8.40;;
41305;SDS011;27051;50.376;19.152;2023-04-03T05:57:22;16.20;;;6.50;;
41305;SDS011;27051;50.376;19.152;2023-04-03T05:59:49;13.60;;;4.60;;
41305;SDS011;27051;50.376;19.152;2023-04-03T06:02:17;11.70;;;5.00;;
41305;SDS011;27051;50.376;19.152;2023-04-03T06:04:50;13.10;;;4.50;;
41305;SDS011;27051;50.376;19.152;2023-04-03T06:07:18;13.40;;;4.80;;
41305;SDS011;27051;50.376;19.152;2023-04-03T06:09:48;14.10;;;5.10;;
41305;SDS011;27051;50.376;19.152;2023-04-03T06:12:18;12.30;;;5.00;;
41305;SDS011;27051;50.376;19.152;2023-04-03T06:14:46;16.70;;;5.40;;
41305;SDS011;27051;50.376;19.152;2023-04-03T06:17:13;14.70;;;5.00;;
41305;SDS011;27051;50.376;19.152;2023-04-03T06:19:42;12.30;;;5.00;;
41305;SDS011;27051;50.376;19.152;2023-04-03T06:22:21;12.90;;;4.50;;
41305;SDS011;27051;50.376;19.152;2023-04-03T06:24:47;11.40;;;4.60;;
41305;SDS011;27051;50.376;19.152;2023-04-03T06:27:13;11.70;;;4.60;;
41305;SDS011;27051;50.376;19.152;2023-04-03T06:29:40;11.30;;;5.40;;
41305;SDS011;27051;50.376;19.152;2023-04-03T06:32:08;11.90;;;5.20;;
41305;SDS011;27051;50.376;19.152;2023-04-03T06:34:35;11.80;;;4.40;;
41305;SDS011;27051;50.376;19.152;2023-04-03T06:37:02;12.40;;;4.60;;
41305;SDS011;27051;50.376;19.152;2023-04-03T06:39:28;11.70;;;4.10;;
41305;SDS011;27051;50.376;19.152;2023-04-03T06:41:58;9.70;;;4.00;;
41305;SDS011;27051;50.376;19.152;2023-04-03T06:44:30;13.10;;;5.50;;
41305;SDS011;27051;50.376;19.152;2023-04-03T06:46:57;11.40;;;4.20;;
41305;SDS011;27051;50.376;19.152;2023-04-03T06:49:27;17.70;;;5.30;;
41305;SDS011;27051;50.376;19.152;2023-04-03T06:51:53;14.60;;;5.00;;
41305;SDS011;27051;50.376;19.152;2023-04-03T06:54:22;15.00;;;4.80;;
41305;SDS011;27051;50.376;19.152;2023-04-03T06:56:52;20.50;;;4.90;;
41305;SDS011;27051;50.376;19.152;2023-04-03T06:59:27;11.50;;;4.20;;
41305;SDS011;27051;50.376;19.152;2023-04-03T07:01:55;14.10;;;4.60;;
41305;SDS011;27051;50.376;19.152;2023-04-03T07:04:32;14.00;;;8.40;;
41305;SDS011;27051;50.376;19.152;2023-04-03T07:07:00;11.70;;;4.50;;
41305;SDS011;27051;50.376;19.152;2023-04-03T07:09:26;9.30;;;4.40;;
41305;SDS011;27051;50.376;19.152;2023-04-03T07:11:53;11.60;;;4.20;;
41305;SDS011;27051;50.376;19.152;2023-04-03T07:14:20;11.90;;;4.30;;
41305;SDS011;27051;50.376;19.152;2023-04-03T07:16:53;11.90;;;4.10;;
41305;SDS011;27051;50.376;19.152;2023-04-03T07:19:20;10.90;;;4.10;;
41305;SDS011;27051;50.376;19.152;2023-04-03T07:21:50;16.30;;;4.40;;
41305;SDS011;27051;50.376;19.152;2023-04-03T07:24:17;11.90;;;4.20;;
41305;SDS011;27051;50.376;19.152;2023-04-03T07:26:43;11.10;;;4.00;;
41305;SDS011;27051;50.376;19.152;2023-04-03T07:29:11;11.70;;;4.40;;
41305;SDS011;27051;50.376;19.152;2023-04-03T07:31:38;13.00;;;4.50;;
41305;SDS011;27051;50.376;19.152;2023-04-03T07:34:05;14.60;;;4.80;;
41305;SDS011;27051;50.376;19.152;2023-04-03T07:36:32;13.60;;;4.80;;
41305;SDS011;27051;50.376;19.152;2023-04-03T07:39:02;13.20;;;4.60;;
41305;SDS011;27051;50.376;19.152;2023-04-03T07:41:28;16.70;;;5.10;;
41305;SDS011;27051;50.376;19.152;2023-04-03T07:43:55;10.20;;;4.20;;
41305;SDS011;27051;50.376;19.152;2023-04-03T07:46:23;17.40;;;5.10;;
41305;SDS011;27051;50.376;19.152;2023-04-03T07:48:52;12.50;;;4.50;;
41305;SDS011;27051;50.376;19.152;2023-04-03T07:51:21;14.60;;;4.70;;
41305;SDS011;27051;50.376;19.152;2023-04-03T07:53:50;14.20;;;4.80;;
41305;SDS011;27051;50.376;19.152;2023-04-03T07:56:16;12.40;;;4.20;;
41305;SDS011;27051;50.376;19.152;2023-04-03T07:58:43;20.50;;;4.90;;
41305;SDS011;27051;50.376;19.152;2023-04-03T08:01:10;13.80;;;4.10;;
41305;SDS011;27051;50.376;19.152;2023-04-03T08:03:37;8.90;;;3.40;;
41305;SDS011;27051;50.376;19.152;2023-04-03T08:06:06;11.80;;;3.70;;
41305;SDS011;27051;50.376;19.152;2023-04-03T08:08:35;11.40;;;4.00;;
41305;SDS011;27051;50.376;19.152;2023-04-03T08:11:02;9.50;;;3.60;;
41305;SDS011;27051;50.376;19.152;2023-04-03T08:13:52;11.50;;;3.90;;
41305;SDS011;27051;50.376;19.152;2023-04-03T08:16:20;11.60;;;3.20;;
41305;SDS011;27051;50.376;19.152;2023-04-03T08:18:57;10.30;;;4.20;;
41305;SDS011;27051;50.376;19.152;2023-04-03T08:21:46;11.50;;;3.80;;
41305;SDS011;27051;50.376;19.152;2023-04-03T08:24:20;7.90;;;3.50;;
41305;SDS011;27051;50.376;19.152;2023-04-03T08:26:49;10.80;;;4.30;;
41305;SDS011;27051;50.376;19.152;2023-04-03T08:29:21;13.00;;;4.70;;
41305;SDS011;27051;50.376;19.152;2023-04-03T08:31:48;9.10;;;4.00;;
41305;SDS011;27051;50.376;19.152;2023-04-03T08:34:14;11.00;;;3.80;;
41305;SDS011;27051;50.376;19.152;2023-04-03T08:36:42;14.50;;;4.40;;
41305;SDS011;27051;50.376;19.152;2023-04-03T08:39:09;11.60;;;4.40;;
41305;SDS011;27051;50.376;19.152;2023-04-03T08:50:04;9.50;;;3.40;;
41305;SDS011;27051;50.376;19.152;2023-04-03T08:52:38;9.70;;;3.40;;
41305;SDS011;27051;50.376;19.152;2023-04-03T08:58:15;7.30;;;3.40;;
41305;SDS011;27051;50.376;19.152;2023-04-03T09:00:46;11.10;;;3.70;;
41305;SDS011;27051;50.376;19.152;2023-04-03T09:03:20;12.30;;;3.80;;
41305;SDS011;27051;50.376;19.152;2023-04-03T09:05:50;5.70;;;2.40;;
41305;SDS011;27051;50.376;19.152;2023-04-03T09:08:43;11.10;;;3.90;;
41305;SDS011;27051;50.376;19.152;2023-04-03T09:11:55;7.80;;;4.00;;
41305;SDS011;27051;50.376;19.152;2023-04-03T09:14:41;9.70;;;3.10;;
41305;SDS011;27051;50.376;19.152;2023-04-03T09:17:13;6.40;;;2.90;;
41305;SDS011;27051;50.376;19.152;2023-04-03T09:19:52;11.00;;;3.30;;
41305;SDS011;27051;50.376;19.152;2023-04-03T09:22:27;5.70;;;2.80;;
41305;SDS011;27051;50.376;19.152;2023-04-03T09:27:42;9.80;;;3.10;;
41305;SDS011;27051;50.376;19.152;2023-04-03T09:30:14;9.60;;;3.50;;
41305;SDS011;27051;50.376;19.152;2023-04-03T09:32:44;9.20;;;3.40;;
41305;SDS011;27051;50.376;19.152;2023-04-03T09:35:17;8.30;;;3.30;;
41305;SDS011;27051;50.376;19.152;2023-04-03T09:37:48;10.40;;;3.40;;
41305;SDS011;27051;50.376;19.152;2023-04-03T09:40:29;6.90;;;3.30;;
41305;SDS011;27051;50.376;19.152;2023-04-03T09:43:02;7.40;;;2.90;;
41305;SDS011;27051;50.376;19.152;2023-04-03T09:45:55;9.60;;;3.90;;
41305;SDS011;27051;50.376;19.152;2023-04-03T09:48:26;9.70;;;3.80;;
41305;SDS011;27051;50.376;19.152;2023-04-03T09:50:56;10.90;;;4.30;;
41305;SDS011;27051;50.376;19.152;2023-04-03T09:53:43;6.30;;;3.40;;
41305;SDS011;27051;50.376;19.152;2023-04-03T09:56:23;10.30;;;3.10;;
41305;SDS011;27051;50.376;19.152;2023-04-03T10:01:32;10.00;;;2.90;;
41305;SDS011;27051;50.376;19.152;2023-04-03T10:06:45;6.40;;;2.60;;
41305;SDS011;27051;50.376;19.152;2023-04-03T10:09:32;7.30;;;3.10;;
41305;SDS011;27051;50.376;19.152;2023-04-03T10:12:09;7.60;;;2.60;;
41305;SDS011;27051;50.376;19.152;2023-04-03T10:14:40;6.50;;;2.50;;
41305;SDS011;27051;50.376;19.152;2023-04-03T10:17:33;5.40;;;2.30;;
41305;SDS011;27051;50.376;19.152;2023-04-03T10:20:23;9.40;;;3.00;;
41305;SDS011;27051;50.376;19.152;2023-04-03T10:28:48;6.40;;;3.00;;
41305;SDS011;27051;50.376;19.152;2023-04-03T10:34:28;12.10;;;2.90;;
41305;SDS011;27051;50.376;19.152;2023-04-03T10:37:13;6.90;;;2.70;;
41305;SDS011;27051;50.376;19.152;2023-04-03T10:45:46;6.60;;;2.90;;
41305;SDS011;27051;50.376;19.152;2023-04-03T10:51:29;7.10;;;3.60;;
41305;SDS011;27051;50.376;19.152;2023-04-03T10:54:18;5.90;;;2.50;;
41305;SDS011;27051;50.376;19.152;2023-04-03T10:57:13;6.20;;;2.90;;
41305;SDS011;27051;50.376;19.152;2023-04-03T10:59:47;5.80;;;2.70;;
41305;SDS011;27051;50.376;19.152;2023-04-03T11:05:13;4.60;;;2.50;;
41305;SDS011;27051;50.376;19.152;2023-04-03T11:07:48;4.70;;;3.00;;
41305;SDS011;27051;50.376;19.152;2023-04-03T11:11:04;7.60;;;2.60;;
41305;SDS011;27051;50.376;19.152;2023-04-03T11:15:42;5.80;;;3.00;;
41305;SDS011;27051;50.376;19.152;2023-04-03T11:18:11;8.40;;;3.30;;
41305;SDS011;27051;50.376;19.152;2023-04-03T11:20:42;8.90;;;2.80;;
41305;SDS011;27051;50.376;19.152;2023-04-03T11:23:26;5.70;;;3.00;;
41305;SDS011;27051;50.376;19.152;2023-04-03T11:25:59;4.30;;;2.30;;
41305;SDS011;27051;50.376;19.152;2023-04-03T11:28:35;5.80;;;2.50;;
41305;SDS011;27051;50.376;19.152;2023-04-03T11:36:30;7.40;;;2.90;;
41305;SDS011;27051;50.376;19.152;2023-04-03T11:39:16;3.60;;;2.30;;
41305;SDS011;27051;50.376;19.152;2023-04-03T11:47:54;5.70;;;2.80;;
41305;SDS011;27051;50.376;19.152;2023-04-03T12:05:49;9.00;;;4.10;;
41305;SDS011;27051;50.376;19.152;2023-04-03T12:16:55;6.60;;;3.40;;
41305;SDS011;27051;50.376;19.152;2023-04-03T12:37:37;7.90;;;3.70;;
41305;SDS011;27051;50.376;19.152;2023-04-03T12:48:46;5.80;;;3.10;;
41305;SDS011;27051;50.376;19.152;2023-04-03T12:51:24;5.30;;;2.90;;
41305;SDS011;27051;50.376;19.152;2023-04-03T12:54:04;5.30;;;2.80;;
41305;SDS011;27051;50.376;19.152;2023-04-03T12:56:41;4.50;;;2.60;;
41305;SDS011;27051;50.376;19.152;2023-04-03T12:59:15;7.50;;;3.10;;
41305;SDS011;27051;50.376;19.152;2023-04-03T13:01:57;3.60;;;2.80;;
41305;SDS011;27051;50.376;19.152;2023-04-03T13:04:26;5.00;;;2.80;;
41305;SDS011;27051;50.376;19.152;2023-04-03T13:06:54;4.60;;;3.10;;
41305;SDS011;27051;50.376;19.152;2023-04-03T13:09:25;4.30;;;2.60;;
41305;SDS011;27051;50.376;19.152;2023-04-03T13:12:15;8.80;;;4.20;;
41305;SDS011;27051;50.376;19.152;2023-04-03T13:14:51;3.40;;;2.90;;
41305;SDS011;27051;50.376;19.152;2023-04-03T13:17:22;6.50;;;3.30;;
41305;SDS011;27051;50.376;19.152;2023-04-03T13:19:49;3.90;;;2.90;;
41305;SDS011;27051;50.376;19.152;2023-04-03T13:24:45;6.90;;;3.60;;
41305;SDS011;27051;50.376;19.152;2023-04-03T13:27:15;5.40;;;3.00;;
41305;SDS011;27051;50.376;19.152;2023-04-03T13:29:42;6.20;;;3.40;;
41305;SDS011;27051;50.376;19.152;2023-04-03T13:32:18;4.00;;;2.80;;
41305;SDS011;27051;50.376;19.152;2023-04-03T13:34:48;4.90;;;2.90;;
41305;SDS011;27051;50.376;19.152;2023-04-03T13:37:19;5.40;;;3.00;;
41305;SDS011;27051;50.376;19.152;2023-04-03T13:40:00;6.80;;;3.40;;
41305;SDS011;27051;50.376;19.152;2023-04-03T13:42:37;6.20;;;2.70;;
41305;SDS011;27051;50.376;19.152;2023-04-03T13:45:52;5.90;;;3.50;;
41305;SDS011;27051;50.376;19.152;2023-04-03T13:48:07;6.00;;;3.10;;
41305;SDS011;27051;50.376;19.152;2023-04-03T13:53:18;4.60;;;2.90;;
41305;SDS011;27051;50.376;19.152;2023-04-03T13:55:53;7.10;;;3.50;;
41305;SDS011;27051;50.376;19.152;2023-04-03T13:58:24;6.90;;;3.10;;
41305;SDS011;27051;50.376;19.152;2023-04-03T14:01:14;4.80;;;3.00;;
41305;SDS011;27051;50.376;19.152;2023-04-03T14:03:55;5.50;;;2.90;;
41305;SDS011;27051;50.376;19.152;2023-04-03T14:06:24;3.70;;;2.30;;
41305;SDS011;27051;50.376;19.152;2023-04-03T14:08:51;5.60;;;2.90;;
41305;SDS011;27051;50.376;19.152;2023-04-03T14:11:19;5.70;;;2.90;;
41305;SDS011;27051;50.376;19.152;2023-04-03T14:13:48;6.00;;;2.50;;
41305;SDS011;27051;50.376;19.152;2023-04-03T14:16:16;6.80;;;2.70;;
41305;SDS011;27051;50.376;19.152;2023-04-03T14:18:46;6.50;;;3.80;;
41305;SDS011;27051;50.376;19.152;2023-04-03T14:21:15;6.20;;;2.80;;
41305;SDS011;27051;50.376;19.152;2023-04-03T14:23:43;6.40;;;3.20;;
41305;SDS011;27051;50.376;19.152;2023-04-03T14:26:14;6.40;;;3.60;;
41305;SDS011;27051;50.376;19.152;2023-04-03T14:28:43;5.50;;;2.80;;
41305;SDS011;27051;50.376;19.152;2023-04-03T14:31:11;7.60;;;3.00;;
41305;SDS011;27051;50.376;19.152;2023-04-03T14:33:39;10.70;;;4.20;;
41305;SDS011;27051;50.376;19.152;2023-04-03T14:36:11;8.00;;;3.70;;
41305;SDS011;27051;50.376;19.152;2023-04-03T14:38:44;7.20;;;3.30;;
41305;SDS011;27051;50.376;19.152;2023-04-03T14:41:12;7.70;;;3.70;;
41305;SDS011;27051;50.376;19.152;2023-04-03T14:43:40;8.80;;;4.10;;
41305;SDS011;27051;50.376;19.152;2023-04-03T14:49:03;11.30;;;4.80;;
41305;SDS011;27051;50.376;19.152;2023-04-03T14:51:39;6.80;;;3.30;;
41305;SDS011;27051;50.376;19.152;2023-04-03T14:54:11;7.10;;;2.50;;
41305;SDS011;27051;50.376;19.152;2023-04-03T14:56:41;7.00;;;3.40;;
41305;SDS011;27051;50.376;19.152;2023-04-03T14:59:09;8.80;;;4.50;;
41305;SDS011;27051;50.376;19.152;2023-04-03T15:01:40;9.80;;;3.90;;
41305;SDS011;27051;50.376;19.152;2023-04-03T15:04:12;9.40;;;3.20;;
41305;SDS011;27051;50.376;19.152;2023-04-03T15:06:44;5.50;;;3.00;;
41305;SDS011;27051;50.376;19.152;2023-04-03T15:09:22;6.80;;;3.10;;
41305;SDS011;27051;50.376;19.152;2023-04-03T15:11:51;10.10;;;5.10;;
41305;SDS011;27051;50.376;19.152;2023-04-03T15:14:19;7.60;;;3.90;;
41305;SDS011;27051;50.376;19.152;2023-04-03T15:16:46;7.40;;;3.40;;
41305;SDS011;27051;50.376;19.152;2023-04-03T15:19:12;5.90;;;3.40;;
41305;SDS011;27051;50.376;19.152;2023-04-03T15:21:39;7.90;;;3.30;;
41305;SDS011;27051;50.376;19.152;2023-04-03T15:24:05;7.10;;;3.40;;
41305;SDS011;27051;50.376;19.152;2023-04-03T15:26:32;7.70;;;3.20;;
41305;SDS011;27051;50.376;19.152;2023-04-03T15:28:59;8.80;;;4.00;;
41305;SDS011;27051;50.376;19.152;2023-04-03T15:31:25;7.40;;;3.20;;
41305;SDS011;27051;50.376;19.152;2023-04-03T15:33:55;10.40;;;3.80;;
41305;SDS011;27051;50.376;19.152;2023-04-03T15:36:21;6.10;;;3.40;;
41305;SDS011;27051;50.376;19.152;2023-04-03T15:38:49;11.10;;;4.40;;
41305;SDS011;27051;50.376;19.152;2023-04-03T15:41:15;12.40;;;4.70;;
41305;SDS011;27051;50.376;19.152;2023-04-03T15:43:45;9.40;;;4.00;;
41305;SDS011;27051;50.376;19.152;2023-04-03T15:46:12;6.90;;;3.20;;
41305;SDS011;27051;50.376;19.152;2023-04-03T15:48:40;6.30;;;3.00;;
41305;SDS011;27051;50.376;19.152;2023-04-03T15:51:06;9.10;;;3.90;;
41305;SDS011;27051;50.376;19.152;2023-04-03T15:53:33;8.40;;;3.70;;
41305;SDS011;27051;50.376;19.152;2023-04-03T15:55:59;8.20;;;3.40;;
41305;SDS011;27051;50.376;19.152;2023-04-03T15:58:26;9.60;;;3.20;;
41305;SDS011;27051;50.376;19.152;2023-04-03T16:00:52;10.70;;;3.80;;
41305;SDS011;27051;50.376;19.152;2023-04-03T16:03:20;7.50;;;3.60;;
41305;SDS011;27051;50.376;19.152;2023-04-03T16:05:47;7.80;;;3.00;;
41305;SDS011;27051;50.376;19.152;2023-04-03T16:08:14;6.90;;;3.30;;
41305;SDS011;27051;50.376;19.152;2023-04-03T16:10:40;8.00;;;3.80;;
41305;SDS011;27051;50.376;19.152;2023-04-03T16:13:07;8.00;;;3.10;;
41305;SDS011;27051;50.376;19.152;2023-04-03T16:15:49;11.90;;;4.20;;
41305;SDS011;27051;50.376;19.152;2023-04-03T16:18:16;8.90;;;3.30;;
41305;SDS011;27051;50.376;19.152;2023-04-03T16:20:45;9.40;;;3.50;;
41305;SDS011;27051;50.376;19.152;2023-04-03T16:23:12;10.60;;;3.60;;
41305;SDS011;27051;50.376;19.152;2023-04-03T16:25:38;9.40;;;4.40;;
41305;SDS011;27051;50.376;19.152;2023-04-03T16:28:05;10.30;;;4.50;;
41305;SDS011;27051;50.376;19.152;2023-04-03T16:30:31;12.70;;;5.50;;
41305;SDS011;27051;50.376;19.152;2023-04-03T16:32:59;10.10;;;4.50;;
41305;SDS011;27051;50.376;19.152;2023-04-03T16:35:26;10.90;;;4.10;;
41305;SDS011;27051;50.376;19.152;2023-04-03T16:37:53;8.20;;;3.40;;
41305;SDS011;27051;50.376;19.152;2023-04-03T16:40:20;8.00;;;3.30;;
41305;SDS011;27051;50.376;19.152;2023-04-03T16:42:47;8.60;;;3.20;;
41305;SDS011;27051;50.376;19.152;2023-04-03T16:45:13;5.60;;;2.70;;